Beauregard Regional Airport De Ridder US
ICAO: KDRI
IATA: DRI
Category: Medium
Scheduled Services: No

Elevation: 202 ft
TransAlt. 18000 ft.

Airport Communications:
POLK APP/DEP:123.7
AWOS 3:118.225
DE RIDDER RDO:122.2
CTAF/UNICOM:122.8

KDRI Zoom In..

If you have problems with the map follow the link
https://www.worldairports.se/pages/airport.php?
ICAO=KDRI

Runways:

(A) RW 14 length 4220 ft width 60 ft
LOC 111.10 / hdg 130

(B) RW 18 length 5495 ft width 100 ft
LOC 111.10 / hdg 175

(C) RW 32 length 4220 ft width 60 ft
LOC 111.10 / hdg 310

(D) RW 36 length 5495 ft width 100 ft
LOC 111.10 / hdg 355

Location; KDRI
Day. 18 / Time. 23.55 Zulu
* Altimeter: 30.26
* Temperature: 20° c. 68°f.
* Wind from: 020° Speed 06 kn.
Dewpoint: 13° c.
Visibility: 10 Statute Miles.
Clouds: Clear (automated report).

KDRI 182355Z AUTO 02006KT 10SM CLR 20/13 A3026 RMK AO2 T01950133 10243 20195


Wind From 020°
Speed 06 kn.

 
 
jpsmedia.com for Web Design worldairports.se 2018   terms of use